sensor_id;sensor_type;location;lat;lon;timestamp;P1;durP1;ratioP1;P2;durP2;ratioP2
74900;SDS011;63461;51.416;6.758;2023-12-20T00:00:41;17.93;;;7.30;;
74900;SDS011;63461;51.416;6.758;2023-12-20T00:03:08;19.80;;;8.00;;
74900;SDS011;63461;51.416;6.758;2023-12-20T00:05:33;22.23;;;8.43;;
74900;SDS011;63461;51.416;6.758;2023-12-20T00:08:26;22.07;;;8.20;;
74900;SDS011;63461;51.416;6.758;2023-12-20T00:11:06;26.03;;;8.17;;
74900;SDS011;63461;51.416;6.758;2023-12-20T00:16:34;21.27;;;8.37;;
74900;SDS011;63461;51.416;6.758;2023-12-20T00:19:05;23.00;;;8.03;;
74900;SDS011;63461;51.416;6.758;2023-12-20T00:21:34;18.17;;;7.43;;
74900;SDS011;63461;51.416;6.758;2023-12-20T00:24:00;20.70;;;7.90;;
74900;SDS011;63461;51.416;6.758;2023-12-20T00:26:29;18.17;;;7.97;;
74900;SDS011;63461;51.416;6.758;2023-12-20T00:28:55;19.57;;;7.60;;
74900;SDS011;63461;51.416;6.758;2023-12-20T00:31:24;19.73;;;7.70;;
74900;SDS011;63461;51.416;6.758;2023-12-20T00:33:50;19.40;;;7.83;;
74900;SDS011;63461;51.416;6.758;2023-12-20T00:36:21;21.37;;;7.90;;
74900;SDS011;63461;51.416;6.758;2023-12-20T00:39:04;19.47;;;7.50;;
74900;SDS011;63461;51.416;6.758;2023-12-20T00:41:30;17.83;;;7.07;;
74900;SDS011;63461;51.416;6.758;2023-12-20T00:43:58;18.83;;;7.10;;
74900;SDS011;63461;51.416;6.758;2023-12-20T00:46:24;21.20;;;7.23;;
74900;SDS011;63461;51.416;6.758;2023-12-20T00:48:50;22.90;;;7.90;;
74900;SDS011;63461;51.416;6.758;2023-12-20T00:51:16;19.20;;;6.97;;
74900;SDS011;63461;51.416;6.758;2023-12-20T00:57:01;18.73;;;7.60;;
74900;SDS011;63461;51.416;6.758;2023-12-20T00:59:27;24.03;;;6.93;;
74900;SDS011;63461;51.416;6.758;2023-12-20T01:02:19;18.83;;;7.00;;
74900;SDS011;63461;51.416;6.758;2023-12-20T01:04:52;19.80;;;7.40;;
74900;SDS011;63461;51.416;6.758;2023-12-20T01:10:27;20.07;;;7.87;;
74900;SDS011;63461;51.416;6.758;2023-12-20T01:14:09;19.43;;;7.23;;
74900;SDS011;63461;51.416;6.758;2023-12-20T01:24:57;20.77;;;8.03;;
74900;SDS011;63461;51.416;6.758;2023-12-20T01:27:29;20.33;;;5.87;;
74900;SDS011;63461;51.416;6.758;2023-12-20T01:30:02;18.43;;;7.23;;
74900;SDS011;63461;51.416;6.758;2023-12-20T01:32:31;23.93;;;8.33;;
74900;SDS011;63461;51.416;6.758;2023-12-20T01:34:57;19.53;;;7.63;;
74900;SDS011;63461;51.416;6.758;2023-12-20T01:37:23;22.77;;;6.53;;
74900;SDS011;63461;51.416;6.758;2023-12-20T01:39:59;15.53;;;5.80;;
74900;SDS011;63461;51.416;6.758;2023-12-20T01:42:25;19.73;;;7.40;;
74900;SDS011;63461;51.416;6.758;2023-12-20T01:44:51;18.90;;;6.67;;
74900;SDS011;63461;51.416;6.758;2023-12-20T01:47:17;19.67;;;6.90;;
74900;SDS011;63461;51.416;6.758;2023-12-20T01:49:45;21.60;;;7.83;;
74900;SDS011;63461;51.416;6.758;2023-12-20T01:52:16;18.73;;;6.73;;
74900;SDS011;63461;51.416;6.758;2023-12-20T01:54:42;17.73;;;7.97;;
74900;SDS011;63461;51.416;6.758;2023-12-20T01:57:08;16.77;;;6.80;;
74900;SDS011;63461;51.416;6.758;2023-12-20T01:59:35;18.03;;;6.97;;
74900;SDS011;63461;51.416;6.758;2023-12-20T02:02:02;18.43;;;7.27;;
74900;SDS011;63461;51.416;6.758;2023-12-20T02:04:28;20.73;;;7.53;;
74900;SDS011;63461;51.416;6.758;2023-12-20T02:06:54;22.43;;;6.30;;
74900;SDS011;63461;51.416;6.758;2023-12-20T02:09:22;21.47;;;6.37;;
74900;SDS011;63461;51.416;6.758;2023-12-20T02:11:48;18.10;;;6.80;;
74900;SDS011;63461;51.416;6.758;2023-12-20T02:14:14;23.10;;;6.23;;
74900;SDS011;63461;51.416;6.758;2023-12-20T02:16:40;19.10;;;6.33;;
74900;SDS011;63461;51.416;6.758;2023-12-20T02:19:07;14.87;;;6.40;;
74900;SDS011;63461;51.416;6.758;2023-12-20T02:21:38;16.07;;;6.73;;
74900;SDS011;63461;51.416;6.758;2023-12-20T02:24:04;16.80;;;6.53;;
74900;SDS011;63461;51.416;6.758;2023-12-20T02:26:31;15.97;;;4.93;;
74900;SDS011;63461;51.416;6.758;2023-12-20T02:28:59;23.63;;;6.57;;
74900;SDS011;63461;51.416;6.758;2023-12-20T02:31:25;18.27;;;5.90;;
74900;SDS011;63461;51.416;6.758;2023-12-20T02:33:51;19.33;;;6.53;;
74900;SDS011;63461;51.416;6.758;2023-12-20T02:36:17;17.27;;;5.47;;
74900;SDS011;63461;51.416;6.758;2023-12-20T02:38:42;23.73;;;6.43;;
74900;SDS011;63461;51.416;6.758;2023-12-20T02:41:08;16.93;;;5.63;;
74900;SDS011;63461;51.416;6.758;2023-12-20T02:43:34;19.33;;;5.80;;
74900;SDS011;63461;51.416;6.758;2023-12-20T02:46:00;21.90;;;5.97;;
74900;SDS011;63461;51.416;6.758;2023-12-20T02:48:26;11.63;;;3.73;;
74900;SDS011;63461;51.416;6.758;2023-12-20T02:50:52;19.87;;;5.47;;
74900;SDS011;63461;51.416;6.758;2023-12-20T02:53:17;19.63;;;5.23;;
74900;SDS011;63461;51.416;6.758;2023-12-20T02:55:43;20.37;;;4.83;;
74900;SDS011;63461;51.416;6.758;2023-12-20T02:58:09;27.40;;;5.70;;
74900;SDS011;63461;51.416;6.758;2023-12-20T03:00:35;15.63;;;5.13;;
74900;SDS011;63461;51.416;6.758;2023-12-20T03:03:01;17.17;;;4.70;;
74900;SDS011;63461;51.416;6.758;2023-12-20T03:05:26;15.07;;;5.03;;
74900;SDS011;63461;51.416;6.758;2023-12-20T03:07:52;17.90;;;4.60;;
74900;SDS011;63461;51.416;6.758;2023-12-20T03:10:18;23.07;;;5.00;;
74900;SDS011;63461;51.416;6.758;2023-12-20T03:12:44;20.30;;;3.53;;
74900;SDS011;63461;51.416;6.758;2023-12-20T03:15:10;18.67;;;3.50;;
74900;SDS011;63461;51.416;6.758;2023-12-20T03:17:36;15.60;;;3.40;;
74900;SDS011;63461;51.416;6.758;2023-12-20T03:20:02;16.43;;;4.27;;
74900;SDS011;63461;51.416;6.758;2023-12-20T03:22:28;19.37;;;3.77;;
74900;SDS011;63461;51.416;6.758;2023-12-20T03:24:54;16.80;;;3.80;;
74900;SDS011;63461;51.416;6.758;2023-12-20T03:27:19;18.97;;;3.90;;
74900;SDS011;63461;51.416;6.758;2023-12-20T03:29:45;17.60;;;3.00;;
74900;SDS011;63461;51.416;6.758;2023-12-20T03:32:11;13.27;;;3.10;;
74900;SDS011;63461;51.416;6.758;2023-12-20T03:34:37;13.00;;;3.20;;
74900;SDS011;63461;51.416;6.758;2023-12-20T03:37:03;15.03;;;3.17;;
74900;SDS011;63461;51.416;6.758;2023-12-20T03:39:28;16.30;;;3.33;;
74900;SDS011;63461;51.416;6.758;2023-12-20T03:41:54;18.93;;;3.37;;
74900;SDS011;63461;51.416;6.758;2023-12-20T03:44:20;12.00;;;2.80;;
74900;SDS011;63461;51.416;6.758;2023-12-20T03:46:46;11.17;;;2.57;;
74900;SDS011;63461;51.416;6.758;2023-12-20T03:49:12;10.40;;;2.60;;
74900;SDS011;63461;51.416;6.758;2023-12-20T03:51:38;20.07;;;2.60;;
74900;SDS011;63461;51.416;6.758;2023-12-20T03:54:04;14.17;;;2.90;;
74900;SDS011;63461;51.416;6.758;2023-12-20T03:56:30;9.40;;;2.30;;
74900;SDS011;63461;51.416;6.758;2023-12-20T03:58:55;13.73;;;2.70;;
74900;SDS011;63461;51.416;6.758;2023-12-20T04:01:21;16.03;;;3.03;;
74900;SDS011;63461;51.416;6.758;2023-12-20T04:03:47;16.17;;;2.67;;
74900;SDS011;63461;51.416;6.758;2023-12-20T04:06:16;9.40;;;2.43;;
74900;SDS011;63461;51.416;6.758;2023-12-20T04:08:43;14.23;;;2.60;;
74900;SDS011;63461;51.416;6.758;2023-12-20T04:11:08;17.10;;;2.60;;
74900;SDS011;63461;51.416;6.758;2023-12-20T04:13:34;18.50;;;3.03;;
74900;SDS011;63461;51.416;6.758;2023-12-20T04:16:00;6.63;;;1.73;;
74900;SDS011;63461;51.416;6.758;2023-12-20T04:18:25;12.13;;;2.93;;
74900;SDS011;63461;51.416;6.758;2023-12-20T04:20:51;15.53;;;4.23;;
74900;SDS011;63461;51.416;6.758;2023-12-20T04:23:17;14.00;;;3.40;;
74900;SDS011;63461;51.416;6.758;2023-12-20T04:25:43;16.80;;;2.73;;
74900;SDS011;63461;51.416;6.758;2023-12-20T04:28:09;17.03;;;3.53;;
74900;SDS011;63461;51.416;6.758;2023-12-20T04:30:34;16.83;;;3.43;;
74900;SDS011;63461;51.416;6.758;2023-12-20T04:33:00;26.67;;;3.30;;
74900;SDS011;63461;51.416;6.758;2023-12-20T04:35:26;16.73;;;3.10;;
74900;SDS011;63461;51.416;6.758;2023-12-20T04:37:52;17.93;;;3.53;;
74900;SDS011;63461;51.416;6.758;2023-12-20T04:40:17;13.93;;;2.87;;
74900;SDS011;63461;51.416;6.758;2023-12-20T04:42:43;17.70;;;3.50;;
74900;SDS011;63461;51.416;6.758;2023-12-20T04:45:09;17.10;;;3.10;;
74900;SDS011;63461;51.416;6.758;2023-12-20T04:47:37;14.53;;;4.23;;
74900;SDS011;63461;51.416;6.758;2023-12-20T04:50:03;14.17;;;3.57;;
74900;SDS011;63461;51.416;6.758;2023-12-20T04:52:29;18.60;;;3.83;;
74900;SDS011;63461;51.416;6.758;2023-12-20T04:54:55;26.80;;;3.60;;
74900;SDS011;63461;51.416;6.758;2023-12-20T04:57:21;17.00;;;3.10;;
74900;SDS011;63461;51.416;6.758;2023-12-20T04:59:47;13.27;;;3.37;;
74900;SDS011;63461;51.416;6.758;2023-12-20T05:02:13;17.43;;;4.50;;
74900;SDS011;63461;51.416;6.758;2023-12-20T05:04:39;20.93;;;4.80;;
74900;SDS011;63461;51.416;6.758;2023-12-20T05:07:05;18.17;;;4.40;;
74900;SDS011;63461;51.416;6.758;2023-12-20T05:09:31;14.40;;;4.67;;
74900;SDS011;63461;51.416;6.758;2023-12-20T05:11:57;12.93;;;3.53;;
74900;SDS011;63461;51.416;6.758;2023-12-20T05:14:23;20.53;;;4.30;;
74900;SDS011;63461;51.416;6.758;2023-12-20T05:16:50;19.30;;;4.80;;
74900;SDS011;63461;51.416;6.758;2023-12-20T05:19:18;17.53;;;3.97;;
74900;SDS011;63461;51.416;6.758;2023-12-20T05:21:44;21.00;;;4.73;;
74900;SDS011;63461;51.416;6.758;2023-12-20T05:24:10;22.93;;;4.97;;
74900;SDS011;63461;51.416;6.758;2023-12-20T05:26:35;19.13;;;4.40;;
74900;SDS011;63461;51.416;6.758;2023-12-20T05:29:01;13.90;;;4.13;;
74900;SDS011;63461;51.416;6.758;2023-12-20T05:31:27;21.93;;;4.20;;
74900;SDS011;63461;51.416;6.758;2023-12-20T05:33:53;16.50;;;4.33;;
74900;SDS011;63461;51.416;6.758;2023-12-20T05:36:19;19.20;;;3.87;;
74900;SDS011;63461;51.416;6.758;2023-12-20T05:38:45;17.40;;;4.33;;
74900;SDS011;63461;51.416;6.758;2023-12-20T05:41:10;16.17;;;5.47;;
74900;SDS011;63461;51.416;6.758;2023-12-20T05:43:36;17.03;;;4.20;;
74900;SDS011;63461;51.416;6.758;2023-12-20T05:46:33;21.17;;;6.43;;
74900;SDS011;63461;51.416;6.758;2023-12-20T05:48:59;22.20;;;4.63;;
74900;SDS011;63461;51.416;6.758;2023-12-20T05:51:27;20.37;;;4.83;;
74900;SDS011;63461;51.416;6.758;2023-12-20T05:53:53;20.17;;;5.37;;
74900;SDS011;63461;51.416;6.758;2023-12-20T05:56:19;17.50;;;4.27;;
74900;SDS011;63461;51.416;6.758;2023-12-20T05:58:45;17.83;;;3.97;;
74900;SDS011;63461;51.416;6.758;2023-12-20T06:01:11;19.50;;;3.80;;
74900;SDS011;63461;51.416;6.758;2023-12-20T06:03:39;14.23;;;4.57;;
74900;SDS011;63461;51.416;6.758;2023-12-20T06:06:07;17.67;;;4.73;;
74900;SDS011;63461;51.416;6.758;2023-12-20T06:08:33;20.47;;;5.10;;
74900;SDS011;63461;51.416;6.758;2023-12-20T06:10:59;19.93;;;4.47;;
74900;SDS011;63461;51.416;6.758;2023-12-20T06:13:25;23.77;;;4.13;;
74900;SDS011;63461;51.416;6.758;2023-12-20T06:15:53;17.23;;;4.70;;
74900;SDS011;63461;51.416;6.758;2023-12-20T06:18:20;24.53;;;4.23;;
74900;SDS011;63461;51.416;6.758;2023-12-20T06:20:46;23.03;;;4.50;;
74900;SDS011;63461;51.416;6.758;2023-12-20T06:23:11;16.37;;;3.90;;
74900;SDS011;63461;51.416;6.758;2023-12-20T06:25:37;18.83;;;3.77;;
74900;SDS011;63461;51.416;6.758;2023-12-20T06:28:03;15.47;;;4.37;;
74900;SDS011;63461;51.416;6.758;2023-12-20T06:30:30;20.83;;;5.13;;
74900;SDS011;63461;51.416;6.758;2023-12-20T06:32:57;20.30;;;4.90;;
74900;SDS011;63461;51.416;6.758;2023-12-20T06:35:24;18.17;;;4.30;;
74900;SDS011;63461;51.416;6.758;2023-12-20T06:37:50;37.40;;;11.03;;
74900;SDS011;63461;51.416;6.758;2023-12-20T06:40:16;27.40;;;5.63;;
74900;SDS011;63461;51.416;6.758;2023-12-20T06:42:41;27.70;;;8.10;;
74900;SDS011;63461;51.416;6.758;2023-12-20T06:45:07;20.80;;;4.93;;
74900;SDS011;63461;51.416;6.758;2023-12-20T06:47:33;21.17;;;4.70;;
74900;SDS011;63461;51.416;6.758;2023-12-20T06:49:59;25.70;;;5.33;;
74900;SDS011;63461;51.416;6.758;2023-12-20T06:52:26;14.63;;;4.07;;
74900;SDS011;63461;51.416;6.758;2023-12-20T06:54:59;18.67;;;4.73;;
74900;SDS011;63461;51.416;6.758;2023-12-20T07:06:27;13.37;;;3.43;;
74900;SDS011;63461;51.416;6.758;2023-12-20T07:15:57;26.87;;;4.30;;
74900;SDS011;63461;51.416;6.758;2023-12-20T07:18:25;22.10;;;4.53;;
74900;SDS011;63461;51.416;6.758;2023-12-20T07:21:03;21.53;;;4.53;;
74900;SDS011;63461;51.416;6.758;2023-12-20T07:23:29;18.47;;;3.90;;
74900;SDS011;63461;51.416;6.758;2023-12-20T07:26:02;16.83;;;3.67;;
74900;SDS011;63461;51.416;6.758;2023-12-20T07:31:52;20.57;;;4.60;;
74900;SDS011;63461;51.416;6.758;2023-12-20T07:34:29;16.23;;;3.67;;
74900;SDS011;63461;51.416;6.758;2023-12-20T07:37:20;14.90;;;3.87;;
74900;SDS011;63461;51.416;6.758;2023-12-20T07:41:09;20.80;;;3.93;;
74900;SDS011;63461;51.416;6.758;2023-12-20T07:45:11;23.50;;;4.23;;
74900;SDS011;63461;51.416;6.758;2023-12-20T07:49:07;25.00;;;4.37;;
74900;SDS011;63461;51.416;6.758;2023-12-20T07:51:44;23.10;;;4.10;;
74900;SDS011;63461;51.416;6.758;2023-12-20T07:54:51;14.97;;;4.03;;
74900;SDS011;63461;51.416;6.758;2023-12-20T08:00:20;19.37;;;4.70;;
74900;SDS011;63461;51.416;6.758;2023-12-20T08:50:06;15.83;;;3.33;;
74900;SDS011;63461;51.416;6.758;2023-12-20T09:08:55;13.90;;;2.67;;
74900;SDS011;63461;51.416;6.758;2023-12-20T09:11:29;14.60;;;2.87;;
74900;SDS011;63461;51.416;6.758;2023-12-20T09:13:55;12.80;;;2.37;;
74900;SDS011;63461;51.416;6.758;2023-12-20T09:16:21;15.27;;;2.77;;
74900;SDS011;63461;51.416;6.758;2023-12-20T09:18:47;16.80;;;2.97;;
74900;SDS011;63461;51.416;6.758;2023-12-20T09:21:13;15.60;;;3.47;;
74900;SDS011;63461;51.416;6.758;2023-12-20T09:23:39;16.80;;;3.70;;
74900;SDS011;63461;51.416;6.758;2023-12-20T09:26:09;16.57;;;2.90;;
74900;SDS011;63461;51.416;6.758;2023-12-20T09:29:09;12.37;;;3.43;;
74900;SDS011;63461;51.416;6.758;2023-12-20T09:32:23;19.40;;;3.33;;
74900;SDS011;63461;51.416;6.758;2023-12-20T09:35:07;10.47;;;2.47;;
74900;SDS011;63461;51.416;6.758;2023-12-20T09:37:44;14.30;;;3.60;;
74900;SDS011;63461;51.416;6.758;2023-12-20T09:43:30;15.77;;;2.10;;
74900;SDS011;63461;51.416;6.758;2023-12-20T09:45:56;10.60;;;2.67;;
74900;SDS011;63461;51.416;6.758;2023-12-20T09:48:25;18.97;;;3.30;;
74900;SDS011;63461;51.416;6.758;2023-12-20T09:50:53;22.60;;;2.93;;
74900;SDS011;63461;51.416;6.758;2023-12-20T09:53:18;13.53;;;3.03;;
74900;SDS011;63461;51.416;6.758;2023-12-20T09:55:45;13.40;;;2.47;;
74900;SDS011;63461;51.416;6.758;2023-12-20T09:58:10;16.57;;;3.20;;
74900;SDS011;63461;51.416;6.758;2023-12-20T10:00:36;9.10;;;1.97;;
74900;SDS011;63461;51.416;6.758;2023-12-20T10:03:02;10.50;;;2.47;;
74900;SDS011;63461;51.416;6.758;2023-12-20T10:05:31;20.23;;;3.57;;
74900;SDS011;63461;51.416;6.758;2023-12-20T10:08:01;16.33;;;3.80;;
74900;SDS011;63461;51.416;6.758;2023-12-20T10:10:27;22.17;;;3.70;;
74900;SDS011;63461;51.416;6.758;2023-12-20T10:15:32;8.23;;;2.27;;
74900;SDS011;63461;51.416;6.758;2023-12-20T10:17:59;22.87;;;3.60;;
74900;SDS011;63461;51.416;6.758;2023-12-20T10:20:25;17.83;;;3.70;;
74900;SDS011;63461;51.416;6.758;2023-12-20T10:22:51;17.10;;;3.30;;
74900;SDS011;63461;51.416;6.758;2023-12-20T10:25:19;14.17;;;3.27;;
74900;SDS011;63461;51.416;6.758;2023-12-20T10:27:46;16.97;;;3.20;;
74900;SDS011;63461;51.416;6.758;2023-12-20T10:30:13;17.30;;;2.60;;
74900;SDS011;63461;51.416;6.758;2023-12-20T10:32:42;12.30;;;2.43;;
74900;SDS011;63461;51.416;6.758;2023-12-20T10:35:08;18.23;;;3.07;;
74900;SDS011;63461;51.416;6.758;2023-12-20T10:37:35;20.30;;;3.43;;
74900;SDS011;63461;51.416;6.758;2023-12-20T10:40:03;13.13;;;3.30;;
74900;SDS011;63461;51.416;6.758;2023-12-20T10:42:31;9.10;;;2.97;;
74900;SDS011;63461;51.416;6.758;2023-12-20T10:44:59;14.10;;;3.60;;
74900;SDS011;63461;51.416;6.758;2023-12-20T10:47:25;12.17;;;3.30;;
74900;SDS011;63461;51.416;6.758;2023-12-20T10:49:55;11.47;;;3.10;;
74900;SDS011;63461;51.416;6.758;2023-12-20T10:52:25;14.60;;;3.63;;
74900;SDS011;63461;51.416;6.758;2023-12-20T10:54:53;10.17;;;2.93;;
74900;SDS011;63461;51.416;6.758;2023-12-20T10:57:18;15.47;;;3.17;;
74900;SDS011;63461;51.416;6.758;2023-12-20T10:59:45;13.57;;;3.13;;
74900;SDS011;63461;51.416;6.758;2023-12-20T11:02:14;10.30;;;2.37;;
74900;SDS011;63461;51.416;6.758;2023-12-20T11:07:33;14.00;;;3.00;;
74900;SDS011;63461;51.416;6.758;2023-12-20T11:10:09;21.60;;;3.83;;
74900;SDS011;63461;51.416;6.758;2023-12-20T11:12:57;14.40;;;3.30;;
74900;SDS011;63461;51.416;6.758;2023-12-20T11:15:35;16.03;;;3.20;;
74900;SDS011;63461;51.416;6.758;2023-12-20T11:18:02;18.93;;;3.30;;
74900;SDS011;63461;51.416;6.758;2023-12-20T11:20:37;11.67;;;2.33;;
74900;SDS011;63461;51.416;6.758;2023-12-20T11:23:05;9.33;;;2.37;;
74900;SDS011;63461;51.416;6.758;2023-12-20T11:28:22;16.63;;;3.80;;
74900;SDS011;63461;51.416;6.758;2023-12-20T11:30:50;18.53;;;3.67;;
74900;SDS011;63461;51.416;6.758;2023-12-20T11:33:24;15.10;;;3.17;;
74900;SDS011;63461;51.416;6.758;2023-12-20T11:36:14;13.63;;;3.37;;
74900;SDS011;63461;51.416;6.758;2023-12-20T11:39:04;11.90;;;2.87;;
74900;SDS011;63461;51.416;6.758;2023-12-20T11:41:34;17.27;;;3.77;;
74900;SDS011;63461;51.416;6.758;2023-12-20T11:43:59;13.20;;;3.60;;
74900;SDS011;63461;51.416;6.758;2023-12-20T11:46:26;13.87;;;3.20;;
74900;SDS011;63461;51.416;6.758;2023-12-20T11:48:52;16.30;;;3.47;;
74900;SDS011;63461;51.416;6.758;2023-12-20T11:51:17;10.70;;;3.40;;
74900;SDS011;63461;51.416;6.758;2023-12-20T11:53:43;13.47;;;3.10;;
74900;SDS011;63461;51.416;6.758;2023-12-20T11:56:09;13.23;;;3.80;;
74900;SDS011;63461;51.416;6.758;2023-12-20T11:58:35;20.20;;;3.60;;
74900;SDS011;63461;51.416;6.758;2023-12-20T12:01:01;22.23;;;3.50;;
74900;SDS011;63461;51.416;6.758;2023-12-20T12:03:28;18.80;;;4.13;;
74900;SDS011;63461;51.416;6.758;2023-12-20T12:05:53;12.53;;;3.13;;
74900;SDS011;63461;51.416;6.758;2023-12-20T12:08:19;16.10;;;3.47;;
74900;SDS011;63461;51.416;6.758;2023-12-20T12:10:45;18.27;;;3.70;;
74900;SDS011;63461;51.416;6.758;2023-12-20T12:13:11;17.63;;;4.07;;
74900;SDS011;63461;51.416;6.758;2023-12-20T12:15:39;16.53;;;3.50;;
74900;SDS011;63461;51.416;6.758;2023-12-20T12:18:06;14.60;;;3.60;;
74900;SDS011;63461;51.416;6.758;2023-12-20T12:20:33;20.20;;;2.43;;
74900;SDS011;63461;51.416;6.758;2023-12-20T12:22:59;14.17;;;3.10;;
74900;SDS011;63461;51.416;6.758;2023-12-20T12:53:27;22.93;;;3.93;;
74900;SDS011;63461;51.416;6.758;2023-12-20T12:55:53;17.20;;;3.70;;
74900;SDS011;63461;51.416;6.758;2023-12-20T12:58:19;16.80;;;3.70;;
74900;SDS011;63461;51.416;6.758;2023-12-20T13:00:45;17.87;;;4.00;;
74900;SDS011;63461;51.416;6.758;2023-12-20T13:03:11;20.63;;;3.33;;
74900;SDS011;63461;51.416;6.758;2023-12-20T13:05:37;17.47;;;4.33;;
74900;SDS011;63461;51.416;6.758;2023-12-20T13:08:03;20.00;;;4.27;;
74900;SDS011;63461;51.416;6.758;2023-12-20T13:10:30;13.63;;;2.83;;
74900;SDS011;63461;51.416;6.758;2023-12-20T13:12:56;17.37;;;4.20;;
74900;SDS011;63461;51.416;6.758;2023-12-20T13:15:21;9.77;;;2.87;;
74900;SDS011;63461;51.416;6.758;2023-12-20T13:17:47;12.97;;;2.97;;
74900;SDS011;63461;51.416;6.758;2023-12-20T13:20:13;18.40;;;4.23;;
74900;SDS011;63461;51.416;6.758;2023-12-20T13:22:39;16.07;;;3.70;;
74900;SDS011;63461;51.416;6.758;2023-12-20T13:25:04;13.20;;;3.73;;
74900;SDS011;63461;51.416;6.758;2023-12-20T13:27:31;12.10;;;3.10;;
74900;SDS011;63461;51.416;6.758;2023-12-20T13:29:58;11.43;;;4.07;;
74900;SDS011;63461;51.416;6.758;2023-12-20T13:32:23;11.33;;;2.73;;
74900;SDS011;63461;51.416;6.758;2023-12-20T13:34:49;12.83;;;4.00;;
74900;SDS011;63461;51.416;6.758;2023-12-20T13:37:15;15.07;;;3.80;;
74900;SDS011;63461;51.416;6.758;2023-12-20T13:39:41;13.43;;;3.57;;
74900;SDS011;63461;51.416;6.758;2023-12-20T13:42:07;13.27;;;3.60;;
74900;SDS011;63461;51.416;6.758;2023-12-20T13:44:33;17.47;;;4.40;;
74900;SDS011;63461;51.416;6.758;2023-12-20T13:46:59;17.27;;;4.37;;
74900;SDS011;63461;51.416;6.758;2023-12-20T13:49:26;15.90;;;4.10;;
74900;SDS011;63461;51.416;6.758;2023-12-20T13:51:53;14.90;;;3.93;;
74900;SDS011;63461;51.416;6.758;2023-12-20T13:54:20;10.47;;;3.30;;
74900;SDS011;63461;51.416;6.758;2023-12-20T13:56:47;17.90;;;5.63;;
74900;SDS011;63461;51.416;6.758;2023-12-20T13:59:13;14.73;;;4.60;;
74900;SDS011;63461;51.416;6.758;2023-12-20T14:01:41;16.90;;;5.00;;
74900;SDS011;63461;51.416;6.758;2023-12-20T14:04:07;15.70;;;4.17;;
74900;SDS011;63461;51.416;6.758;2023-12-20T14:06:32;18.60;;;4.47;;
74900;SDS011;63461;51.416;6.758;2023-12-20T14:08:58;15.70;;;5.20;;
74900;SDS011;63461;51.416;6.758;2023-12-20T14:11:28;18.90;;;4.63;;
74900;SDS011;63461;51.416;6.758;2023-12-20T14:13:54;16.60;;;4.27;;
74900;SDS011;63461;51.416;6.758;2023-12-20T14:16:23;14.40;;;4.43;;
74900;SDS011;63461;51.416;6.758;2023-12-20T14:18:49;19.87;;;5.40;;
74900;SDS011;63461;51.416;6.758;2023-12-20T14:21:17;19.90;;;5.53;;
74900;SDS011;63461;51.416;6.758;2023-12-20T14:23:45;12.43;;;3.60;;
74900;SDS011;63461;51.416;6.758;2023-12-20T14:26:11;22.80;;;4.67;;
74900;SDS011;63461;51.416;6.758;2023-12-20T14:28:42;19.30;;;4.50;;
74900;SDS011;63461;51.416;6.758;2023-12-20T14:31:09;12.00;;;3.13;;
74900;SDS011;63461;51.416;6.758;2023-12-20T14:33:35;23.13;;;5.33;;
74900;SDS011;63461;51.416;6.758;2023-12-20T14:36:04;19.73;;;5.23;;
74900;SDS011;63461;51.416;6.758;2023-12-20T14:38:34;18.53;;;4.87;;
74900;SDS011;63461;51.416;6.758;2023-12-20T14:41:00;18.33;;;4.17;;
74900;SDS011;63461;51.416;6.758;2023-12-20T14:43:29;11.73;;;4.30;;
74900;SDS011;63461;51.416;6.758;2023-12-20T14:45:54;17.50;;;4.53;;
74900;SDS011;63461;51.416;6.758;2023-12-20T14:48:20;8.27;;;2.10;;
74900;SDS011;63461;51.416;6.758;2023-12-20T14:50:46;13.23;;;3.87;;
74900;SDS011;63461;51.416;6.758;2023-12-20T14:53:14;15.60;;;3.60;;
74900;SDS011;63461;51.416;6.758;2023-12-20T14:55:41;14.27;;;3.93;;
74900;SDS011;63461;51.416;6.758;2023-12-20T14:58:07;15.47;;;4.33;;
74900;SDS011;63461;51.416;6.758;2023-12-20T15:00:33;14.50;;;4.70;;
74900;SDS011;63461;51.416;6.758;2023-12-20T15:02:59;14.93;;;5.03;;
74900;SDS011;63461;51.416;6.758;2023-12-20T15:05:25;19.07;;;5.30;;
74900;SDS011;63461;51.416;6.758;2023-12-20T15:07:52;15.40;;;4.20;;
74900;SDS011;63461;51.416;6.758;2023-12-20T15:10:18;16.70;;;4.03;;
74900;SDS011;63461;51.416;6.758;2023-12-20T15:12:44;13.07;;;4.30;;
74900;SDS011;63461;51.416;6.758;2023-12-20T15:15:12;14.27;;;3.87;;
74900;SDS011;63461;51.416;6.758;2023-12-20T15:17:39;13.67;;;4.27;;
74900;SDS011;63461;51.416;6.758;2023-12-20T15:20:05;16.60;;;4.73;;
74900;SDS011;63461;51.416;6.758;2023-12-20T15:22:34;13.60;;;4.70;;
74900;SDS011;63461;51.416;6.758;2023-12-20T15:25:00;19.40;;;4.43;;
74900;SDS011;63461;51.416;6.758;2023-12-20T15:27:26;19.77;;;4.73;;
74900;SDS011;63461;51.416;6.758;2023-12-20T15:29:53;14.23;;;4.37;;
74900;SDS011;63461;51.416;6.758;2023-12-20T15:32:18;10.83;;;4.10;;
74900;SDS011;63461;51.416;6.758;2023-12-20T15:34:44;17.47;;;3.57;;
74900;SDS011;63461;51.416;6.758;2023-12-20T15:37:11;14.87;;;3.60;;
74900;SDS011;63461;51.416;6.758;2023-12-20T15:39:36;10.70;;;3.50;;
74900;SDS011;63461;51.416;6.758;2023-12-20T15:42:02;17.00;;;4.60;;
74900;SDS011;63461;51.416;6.758;2023-12-20T15:44:28;17.03;;;4.60;;
74900;SDS011;63461;51.416;6.758;2023-12-20T15:46:54;13.67;;;4.13;;
74900;SDS011;63461;51.416;6.758;2023-12-20T15:49:19;10.43;;;3.97;;
74900;SDS011;63461;51.416;6.758;2023-12-20T15:51:46;16.83;;;4.97;;
74900;SDS011;63461;51.416;6.758;2023-12-20T15:54:12;15.37;;;5.20;;
74900;SDS011;63461;51.416;6.758;2023-12-20T15:56:37;16.43;;;4.80;;
74900;SDS011;63461;51.416;6.758;2023-12-20T15:59:06;12.53;;;4.37;;
74900;SDS011;63461;51.416;6.758;2023-12-20T16:01:32;19.47;;;5.80;;
74900;SDS011;63461;51.416;6.758;2023-12-20T16:03:57;21.97;;;5.00;;
74900;SDS011;63461;51.416;6.758;2023-12-20T16:06:23;16.73;;;3.57;;
74900;SDS011;63461;51.416;6.758;2023-12-20T16:08:49;16.20;;;4.87;;
74900;SDS011;63461;51.416;6.758;2023-12-20T16:11:15;16.10;;;4.77;;
74900;SDS011;63461;51.416;6.758;2023-12-20T16:13:41;17.83;;;5.10;;
74900;SDS011;63461;51.416;6.758;2023-12-20T16:16:07;18.73;;;5.47;;
74900;SDS011;63461;51.416;6.758;2023-12-20T16:18:32;18.33;;;5.53;;
74900;SDS011;63461;51.416;6.758;2023-12-20T16:21:00;19.20;;;4.83;;
74900;SDS011;63461;51.416;6.758;2023-12-20T16:23:28;18.07;;;4.93;;
74900;SDS011;63461;51.416;6.758;2023-12-20T16:25:54;17.60;;;5.70;;
74900;SDS011;63461;51.416;6.758;2023-12-20T16:28:20;20.33;;;4.27;;
74900;SDS011;63461;51.416;6.758;2023-12-20T16:30:46;10.03;;;3.03;;
74900;SDS011;63461;51.416;6.758;2023-12-20T16:33:12;12.50;;;4.57;;
74900;SDS011;63461;51.416;6.758;2023-12-20T16:35:39;9.03;;;2.80;;
74900;SDS011;63461;51.416;6.758;2023-12-20T16:38:04;13.67;;;4.83;;
74900;SDS011;63461;51.416;6.758;2023-12-20T16:40:30;14.07;;;4.37;;
74900;SDS011;63461;51.416;6.758;2023-12-20T16:42:56;15.13;;;4.60;;
74900;SDS011;63461;51.416;6.758;2023-12-20T16:45:22;18.33;;;4.60;;
74900;SDS011;63461;51.416;6.758;2023-12-20T16:47:48;16.40;;;4.83;;
74900;SDS011;63461;51.416;6.758;2023-12-20T16:50:14;14.63;;;4.47;;
74900;SDS011;63461;51.416;6.758;2023-12-20T16:52:40;11.67;;;3.63;;
74900;SDS011;63461;51.416;6.758;2023-12-20T16:55:09;16.27;;;4.00;;
74900;SDS011;63461;51.416;6.758;2023-12-20T16:57:36;31.20;;;5.10;;
74900;SDS011;63461;51.416;6.758;2023-12-20T17:00:03;14.70;;;4.20;;
74900;SDS011;63461;51.416;6.758;2023-12-20T17:02:29;9.27;;;3.27;;
74900;SDS011;63461;51.416;6.758;2023-12-20T17:04:55;13.07;;;4.37;;
74900;SDS011;63461;51.416;6.758;2023-12-20T17:07:21;18.07;;;4.70;;